createdAt,value
2023-05-17T00:01:58.399Z,58.61
2023-05-17T00:05:05.380Z,58.64
2023-05-17T00:08:11.414Z,58.68
2023-05-17T00:11:17.613Z,58.72
2023-05-17T00:14:23.614Z,58.78
2023-05-17T00:17:31.162Z,58.82
2023-05-17T00:20:37.462Z,58.92
2023-05-17T00:23:44.756Z,58.95
2023-05-17T00:26:51.919Z,58.98
2023-05-17T00:29:59.834Z,59.12
2023-05-17T00:33:08.457Z,59.15
2023-05-17T00:36:14.698Z,59.13
2023-05-17T00:39:15.444Z,59.13
2023-05-17T00:42:21.422Z,59.20
2023-05-17T00:45:27.817Z,59.22
2023-05-17T00:48:34.965Z,59.21
2023-05-17T00:51:42.361Z,59.19
2023-05-17T00:54:49.060Z,59.15
2023-05-17T00:57:54.692Z,59.15
2023-05-17T01:01:00.744Z,59.09
2023-05-17T01:04:08.134Z,59.08
2023-05-17T01:07:17.063Z,59.02
2023-05-17T01:10:25.692Z,59.02
2023-05-17T01:13:36.558Z,59.01
2023-05-17T01:16:46.805Z,58.96
2023-05-17T01:20:22.962Z,58.91
2023-05-17T01:23:36.094Z,58.85
2023-05-17T01:26:54.354Z,58.81
2023-05-17T01:29:59.267Z,58.79
2023-05-17T01:33:06.412Z,58.72
2023-05-17T01:36:12.745Z,58.59
2023-05-17T01:39:19.728Z,58.51
2023-05-17T01:42:29.660Z,58.46
2023-05-17T01:45:46.546Z,58.44
2023-05-17T01:48:55.803Z,58.33
2023-05-17T01:52:06.172Z,58.41
2023-05-17T01:55:39.484Z,58.40
2023-05-17T01:58:48.214Z,58.36
2023-05-17T02:01:53.808Z,58.22
2023-05-17T02:05:02.121Z,58.13
2023-05-17T02:08:10.799Z,58.16
2023-05-17T02:11:18.187Z,58.10
2023-05-17T02:14:24.572Z,58.03
2023-05-17T02:17:31.305Z,58.01
2023-05-17T02:20:39.049Z,57.95
2023-05-17T02:23:46.522Z,57.87
2023-05-17T02:26:52.802Z,57.77
2023-05-17T02:29:58.965Z,57.69
2023-05-17T02:33:06.328Z,57.66
2023-05-17T02:36:12.735Z,57.64
2023-05-17T02:39:18.689Z,57.59
2023-05-17T02:42:24.666Z,57.54
2023-05-17T02:45:31.934Z,57.50
2023-05-17T02:48:39.444Z,57.43
2023-05-17T02:51:45.706Z,57.26
2023-05-17T02:54:52.693Z,57.16
2023-05-17T02:57:58.944Z,57.12
2023-05-17T03:01:05.184Z,57.04
2023-05-17T03:04:11.345Z,57.00
2023-05-17T03:07:18.597Z,56.89
2023-05-17T03:10:24.301Z,56.83
2023-05-17T03:13:29.669Z,56.77
2023-05-17T03:16:36.445Z,56.62
2023-05-17T03:19:42.545Z,56.52
2023-05-17T03:22:49.694Z,56.42
2023-05-17T03:25:57.077Z,56.37
2023-05-17T03:29:07.557Z,56.36
2023-05-17T03:32:15.796Z,56.29
2023-05-17T03:35:21.764Z,56.16
2023-05-17T03:38:28.907Z,56.10
2023-05-17T03:41:34.343Z,55.98
2023-05-17T03:44:39.560Z,55.85
2023-05-17T03:47:47.124Z,55.78
2023-05-17T03:50:56.164Z,55.83
2023-05-17T03:54:01.979Z,55.77
2023-05-17T03:57:09.353Z,55.70
2023-05-17T04:00:16.765Z,55.65
2023-05-17T04:03:24.560Z,55.56
2023-05-17T04:06:30.778Z,55.46
2023-05-17T04:09:36.902Z,55.36
2023-05-17T04:12:44.383Z,55.27
2023-05-17T04:15:50.884Z,55.23
2023-05-17T04:19:00.171Z,55.14
2023-05-17T04:22:06.066Z,55.05
2023-05-17T04:25:13.129Z,54.92
2023-05-17T04:28:19.917Z,54.95
2023-05-17T04:31:30.067Z,54.90
2023-05-17T04:34:36.327Z,54.79
2023-05-17T04:37:44.762Z,54.75
2023-05-17T04:40:52.340Z,54.64
2023-05-17T04:43:59.027Z,54.52
2023-05-17T04:47:06.424Z,54.43
2023-05-17T04:50:13.165Z,54.29
2023-05-17T04:53:18.950Z,54.13
2023-05-17T04:56:24.393Z,54.04
2023-05-17T04:59:30.099Z,53.88
2023-05-17T05:02:39.216Z,53.73
2023-05-17T05:05:45.959Z,53.61
2023-05-17T05:08:52.819Z,53.40
2023-05-17T05:11:58.307Z,53.31
2023-05-17T05:15:05.704Z,53.18
2023-05-17T05:18:14.167Z,53.08
2023-05-17T05:21:21.472Z,52.96
2023-05-17T05:24:27.842Z,52.88
2023-05-17T05:27:35.778Z,52.62
2023-05-17T05:30:43.706Z,52.34
2023-05-17T05:33:50.568Z,52.24
2023-05-17T05:36:59.624Z,51.88
2023-05-17T05:40:11.184Z,51.80
2023-05-17T05:43:17.716Z,51.62
2023-05-17T05:46:24.716Z,51.33
2023-05-17T05:49:30.439Z,51.22
2023-05-17T05:52:36.317Z,51.11
2023-05-17T05:55:42.555Z,51.05
2023-05-17T05:58:49.820Z,50.97
2023-05-17T06:02:05.902Z,50.75
2023-05-17T06:05:12.244Z,50.49
2023-05-17T06:08:19.606Z,50.32
2023-05-17T06:11:24.854Z,50.29
2023-05-17T06:14:32.069Z,50.08
2023-05-17T06:17:40.334Z,49.96
2023-05-17T06:20:46.377Z,49.90
2023-05-17T06:23:52.530Z,49.62
2023-05-17T06:27:01.031Z,49.43
2023-05-17T06:30:07.652Z,49.13
2023-05-17T06:33:14.164Z,48.84
2023-05-17T06:36:20.845Z,48.51
2023-05-17T06:39:26.722Z,48.25
2023-05-17T06:42:33.144Z,47.95
2023-05-17T06:45:40.331Z,47.59
2023-05-17T06:48:48.006Z,47.38
2023-05-17T06:51:53.392Z,47.26
2023-05-17T06:54:59.409Z,46.99
2023-05-17T06:58:05.234Z,46.72
2023-05-17T07:01:12.905Z,46.54
2023-05-17T07:04:19.691Z,46.37
2023-05-17T07:07:25.276Z,46.08
2023-05-17T07:10:31.056Z,46.00
2023-05-17T07:13:38.125Z,45.74
2023-05-17T07:16:45.559Z,45.33
2023-05-17T07:19:50.833Z,45.12
2023-05-17T07:22:58.302Z,44.89
2023-05-17T07:26:07.122Z,44.68
2023-05-17T07:29:14.307Z,44.35
2023-05-17T07:32:20.564Z,44.23
2023-05-17T07:35:27.037Z,43.97
2023-05-17T07:38:32.864Z,43.59
2023-05-17T07:41:38.662Z,43.42
2023-05-17T07:44:44.142Z,43.20
2023-05-17T07:47:50.619Z,43.09
2023-05-17T07:50:56.946Z,42.89
2023-05-17T07:54:03.043Z,42.65
2023-05-17T07:57:09.398Z,42.38
2023-05-17T08:00:15.876Z,42.27
2023-05-17T08:03:21.449Z,42.08
2023-05-17T08:06:28.233Z,41.94
2023-05-17T08:09:34.093Z,41.80
2023-05-17T08:12:42.242Z,41.61
2023-05-17T08:15:51.575Z,41.48
2023-05-17T08:18:57.569Z,41.31
2023-05-17T08:22:06.601Z,41.00
2023-05-17T08:25:12.890Z,40.83
2023-05-17T08:28:19.782Z,40.58
2023-05-17T08:31:26.252Z,40.39
2023-05-17T08:34:33.367Z,40.21
2023-05-17T08:37:39.555Z,40.09
2023-05-17T08:40:46.607Z,39.97
2023-05-17T08:43:52.321Z,39.75
2023-05-17T08:47:00.245Z,39.58
2023-05-17T08:50:13.315Z,39.33
2023-05-17T08:53:17.744Z,39.18
2023-05-17T08:56:24.126Z,38.89
2023-05-17T08:59:30.352Z,38.75
2023-05-17T09:02:37.507Z,38.58
2023-05-17T09:05:44.309Z,38.51
2023-05-17T09:08:52.076Z,38.34
2023-05-17T09:11:58.170Z,38.05
2023-05-17T09:15:04.710Z,37.84
2023-05-17T09:18:10.649Z,37.71
2023-05-17T09:21:18.935Z,37.51
2023-05-17T09:24:25.444Z,37.46
2023-05-17T09:27:33.204Z,37.45
2023-05-17T09:30:46.469Z,37.28
2023-05-17T09:34:02.335Z,37.11
2023-05-17T09:37:09.618Z,36.93
2023-05-17T09:40:19.032Z,36.67
2023-05-17T09:43:25.830Z,36.67
2023-05-17T09:46:34.822Z,36.52
2023-05-17T09:49:44.689Z,36.45
2023-05-17T09:52:55.044Z,36.43
2023-05-17T09:56:04.492Z,36.32
2023-05-17T09:59:10.530Z,36.07
2023-05-17T10:02:17.063Z,35.91
2023-05-17T10:05:26.648Z,35.71
2023-05-17T10:08:34.832Z,35.48
2023-05-17T10:11:44.604Z,35.40
2023-05-17T10:14:49.504Z,35.47
2023-05-17T10:17:55.406Z,35.50
2023-05-17T10:21:02.896Z,35.32
2023-05-17T10:24:09.505Z,35.19
2023-05-17T10:27:16.766Z,35.09
2023-05-17T10:30:25.300Z,35.04
2023-05-17T10:33:32.005Z,34.92
2023-05-17T10:36:38.947Z,34.71
2023-05-17T10:39:46.500Z,34.52
2023-05-17T10:42:52.667Z,34.38
2023-05-17T10:46:00.299Z,34.33
2023-05-17T10:49:10.109Z,34.24
2023-05-17T10:52:32.593Z,34.08
2023-05-17T10:55:40.765Z,33.88
2023-05-17T10:58:48.255Z,33.74
2023-05-17T11:02:21.873Z,33.57
2023-05-17T11:05:41.864Z,33.35
2023-05-17T11:08:49.517Z,33.31
2023-05-17T11:12:20.124Z,33.24
2023-05-17T11:15:30.234Z,33.11
2023-05-17T11:18:39.849Z,32.92
2023-05-17T11:21:45.722Z,33.04
2023-05-17T11:25:00.804Z,33.09
2023-05-17T11:28:10.140Z,33.05
2023-05-17T11:31:16.354Z,32.98
2023-05-17T11:34:23.984Z,32.75
2023-05-17T11:37:32.139Z,32.56
2023-05-17T11:40:42.260Z,32.51
2023-05-17T11:43:47.898Z,32.37
2023-05-17T11:46:53.332Z,32.25
2023-05-17T11:50:00.043Z,32.07
2023-05-17T11:53:06.991Z,31.79
2023-05-17T11:56:11.808Z,31.70
2023-05-17T11:59:17.919Z,31.59
2023-05-17T12:02:24.382Z,31.40
2023-05-17T12:05:36.343Z,31.16
2023-05-17T12:08:43.122Z,31.13
2023-05-17T12:11:49.882Z,31.01
2023-05-17T12:14:57.702Z,30.65
2023-05-17T12:18:03.396Z,30.36
2023-05-17T12:21:13.306Z,30.23
2023-05-17T12:24:21.402Z,30.20
2023-05-17T12:27:27.351Z,30.00
2023-05-17T12:30:34.124Z,29.86
2023-05-17T12:33:40.264Z,29.58
2023-05-17T12:36:48.017Z,29.33
2023-05-17T12:39:55.079Z,29.25
2023-05-17T12:43:01.510Z,29.28
2023-05-17T12:46:08.228Z,29.27
2023-05-17T12:49:20.636Z,28.95
2023-05-17T12:52:27.334Z,28.83
2023-05-17T12:55:32.878Z,28.65
2023-05-17T12:58:39.244Z,28.49
2023-05-17T13:01:51.992Z,28.32
2023-05-17T13:04:57.886Z,28.27
2023-05-17T13:08:04.862Z,28.31
2023-05-17T13:11:22.621Z,28.24
2023-05-17T13:14:27.129Z,28.17
2023-05-17T13:17:53.442Z,28.12
2023-05-17T13:20:59.848Z,28.04
2023-05-17T13:24:06.094Z,27.92
2023-05-17T13:27:12.962Z,27.70
2023-05-17T13:30:19.960Z,27.53
2023-05-17T13:33:25.891Z,27.37
2023-05-17T13:36:35.846Z,27.40
2023-05-17T13:39:40.650Z,27.32
2023-05-17T13:42:46.992Z,27.21
2023-05-17T13:45:53.139Z,27.31
2023-05-17T13:48:59.885Z,27.31
2023-05-17T13:52:05.207Z,27.16
2023-05-17T13:55:11.378Z,27.16
2023-05-17T13:58:16.535Z,26.90
2023-05-17T14:01:24.248Z,26.84
2023-05-17T14:04:31.408Z,26.78
2023-05-17T14:07:37.828Z,26.68
2023-05-17T14:10:44.189Z,26.36
2023-05-17T14:13:49.886Z,26.36
2023-05-17T14:16:55.569Z,26.43
2023-05-17T14:20:02.549Z,26.88
2023-05-17T14:23:08.384Z,26.88
2023-05-17T14:26:14.919Z,26.78
2023-05-17T14:29:20.031Z,26.69
2023-05-17T14:32:24.834Z,26.67
2023-05-17T14:35:30.968Z,26.64
2023-05-17T14:38:37.162Z,26.65
2023-05-17T14:41:44.749Z,26.68
2023-05-17T14:44:49.307Z,26.71
2023-05-17T14:47:55.937Z,26.77
2023-05-17T14:51:02.446Z,26.79
2023-05-17T14:54:08.416Z,26.82
2023-05-17T14:57:13.278Z,26.81
2023-05-17T15:00:21.350Z,26.90
2023-05-17T15:03:27.351Z,26.89
2023-05-17T15:06:33.427Z,27.05
2023-05-17T15:09:40.742Z,27.14
2023-05-17T15:12:47.165Z,27.23
2023-05-17T15:15:54.895Z,27.27
2023-05-17T15:19:00.801Z,27.26
2023-05-17T15:22:08.969Z,27.24
2023-05-17T15:25:16.022Z,27.21
2023-05-17T15:28:21.983Z,27.20
2023-05-17T15:31:27.343Z,27.09
2023-05-17T15:34:33.391Z,26.86
2023-05-17T15:37:38.734Z,26.80
2023-05-17T15:40:43.900Z,26.87
2023-05-17T15:43:51.631Z,26.87
2023-05-17T15:46:57.276Z,26.81
2023-05-17T15:50:03.618Z,26.87
2023-05-17T15:53:09.567Z,26.98
2023-05-17T15:56:18.277Z,27.13
2023-05-17T15:59:24.655Z,27.23
2023-05-17T16:02:32.856Z,27.22
2023-05-17T16:05:40.135Z,27.21
2023-05-17T16:08:46.152Z,27.19
2023-05-17T16:11:51.734Z,27.22
2023-05-17T16:14:57.811Z,27.33
2023-05-17T16:18:05.117Z,27.39
2023-05-17T16:21:19.733Z,27.57
2023-05-17T16:24:25.668Z,27.72
2023-05-17T16:27:32.266Z,27.91
2023-05-17T16:30:39.927Z,28.05
2023-05-17T16:33:48.542Z,28.22
2023-05-17T16:36:56.031Z,28.41
2023-05-17T16:40:02.114Z,28.56
2023-05-17T16:43:08.109Z,28.76
2023-05-17T16:46:13.125Z,28.90
2023-05-17T16:49:19.825Z,29.07
2023-05-17T16:52:24.688Z,29.31
2023-05-17T16:55:30.899Z,29.53
2023-05-17T16:58:36.658Z,29.71
2023-05-17T17:01:42.895Z,29.96
2023-05-17T17:04:48.008Z,30.19
2023-05-17T17:07:54.590Z,30.46
2023-05-17T17:11:01.154Z,30.70
2023-05-17T17:14:07.657Z,30.91
2023-05-17T17:17:15.099Z,31.16
2023-05-17T17:20:21.977Z,31.36
2023-05-17T17:23:28.301Z,31.55
2023-05-17T17:26:35.254Z,31.82
2023-05-17T17:29:40.892Z,32.11
2023-05-17T17:32:46.958Z,32.42
2023-05-17T17:35:53.591Z,32.63
2023-05-17T17:38:59.515Z,32.90
2023-05-17T17:42:05.802Z,33.15
2023-05-17T17:45:12.017Z,33.39
2023-05-17T17:48:20.632Z,33.64
2023-05-17T17:51:26.315Z,33.89
2023-05-17T17:54:31.882Z,34.16
2023-05-17T17:57:41.216Z,34.48
2023-05-17T18:00:49.396Z,34.71
2023-05-17T18:03:57.246Z,34.95
2023-05-17T18:07:05.293Z,35.21
2023-05-17T18:10:11.638Z,35.55
2023-05-17T18:13:17.759Z,35.80
2023-05-17T18:16:22.371Z,36.03
2023-05-17T18:19:28.161Z,36.25
2023-05-17T18:22:33.166Z,36.55
2023-05-17T18:25:38.262Z,36.78
2023-05-17T18:28:45.090Z,37.03
2023-05-17T18:31:52.485Z,37.27
2023-05-17T18:34:58.385Z,37.50
2023-05-17T18:38:04.749Z,37.75
2023-05-17T18:41:11.706Z,37.99
2023-05-17T18:44:18.566Z,38.25
2023-05-17T18:47:23.436Z,38.49
2023-05-17T18:50:28.911Z,38.75
2023-05-17T18:53:36.337Z,38.98
2023-05-17T18:56:42.128Z,39.23
2023-05-17T18:59:48.236Z,39.51
2023-05-17T19:02:54.897Z,39.69
2023-05-17T19:06:02.362Z,39.91
2023-05-17T19:09:09.121Z,40.21
2023-05-17T19:12:16.083Z,40.46
2023-05-17T19:15:22.855Z,40.73
2023-05-17T19:18:28.926Z,40.92
2023-05-17T19:21:34.367Z,41.15
2023-05-17T19:24:42.220Z,41.38
2023-05-17T19:27:47.223Z,41.63
2023-05-17T19:30:52.896Z,41.86
2023-05-17T19:33:59.588Z,42.09
2023-05-17T19:37:05.430Z,42.26
2023-05-17T19:40:12.853Z,42.49
2023-05-17T19:43:18.103Z,42.70
2023-05-17T19:46:25.232Z,42.90
2023-05-17T19:49:32.307Z,43.08
2023-05-17T19:52:37.970Z,43.26
2023-05-17T19:55:43.633Z,43.42
2023-05-17T19:58:50.699Z,43.62
2023-05-17T20:01:57.093Z,43.77
2023-05-17T20:05:03.214Z,44.03
2023-05-17T20:08:11.790Z,44.26
2023-05-17T20:11:17.166Z,44.41
2023-05-17T20:14:22.881Z,44.51
2023-05-17T20:17:30.738Z,44.66
2023-05-17T20:20:37.306Z,44.79
2023-05-17T20:23:43.210Z,44.89
2023-05-17T20:26:52.030Z,45.07
2023-05-17T20:29:59.526Z,45.26
2023-05-17T20:33:08.555Z,45.44
2023-05-17T20:36:14.207Z,45.62
2023-05-17T20:39:22.838Z,45.77
2023-05-17T20:42:29.534Z,45.87
2023-05-17T20:45:36.514Z,45.95
2023-05-17T20:48:42.697Z,46.08
2023-05-17T20:51:47.903Z,46.24
2023-05-17T20:54:54.618Z,46.41
2023-05-17T20:58:00.739Z,46.57
2023-05-17T21:01:07.952Z,46.73
2023-05-17T21:04:13.851Z,46.84
2023-05-17T21:07:19.555Z,46.94
2023-05-17T21:10:29.938Z,47.09
2023-05-17T21:13:36.981Z,47.27
2023-05-17T21:16:45.015Z,47.42
2023-05-17T21:19:49.867Z,47.59
2023-05-17T21:22:55.831Z,47.74
2023-05-17T21:26:01.224Z,47.86
2023-05-17T21:29:08.310Z,48.00
2023-05-17T21:32:14.797Z,48.16
2023-05-17T21:35:20.573Z,48.33
2023-05-17T21:38:27.419Z,48.56
2023-05-17T21:41:34.514Z,48.78
2023-05-17T21:44:40.293Z,49.03
2023-05-17T21:47:46.428Z,49.29
2023-05-17T21:50:52.606Z,49.51
2023-05-17T21:53:59.070Z,49.68
2023-05-17T21:57:05.871Z,49.82
2023-05-17T22:00:13.172Z,49.80
2023-05-17T22:03:20.079Z,49.82
2023-05-17T22:06:29.436Z,49.88
2023-05-17T22:09:35.609Z,49.94
2023-05-17T22:12:43.501Z,50.01
2023-05-17T22:15:52.172Z,50.12
2023-05-17T22:19:02.619Z,50.27
2023-05-17T22:22:08.632Z,50.37
2023-05-17T22:25:15.896Z,50.58
2023-05-17T22:28:22.936Z,50.79
2023-05-17T22:31:30.520Z,51.02
2023-05-17T22:34:36.687Z,51.22
2023-05-17T22:37:44.394Z,51.42
2023-05-17T22:40:51.466Z,51.58
2023-05-17T22:44:01.386Z,51.69
2023-05-17T22:47:08.450Z,51.79
2023-05-17T22:50:14.927Z,51.87
2023-05-17T22:53:25.054Z,51.88
2023-05-17T22:56:31.092Z,51.92
2023-05-17T22:59:36.336Z,51.94
2023-05-17T23:02:43.175Z,51.96
2023-05-17T23:05:50.041Z,52.01
2023-05-17T23:08:56.266Z,52.03
2023-05-17T23:12:03.286Z,52.06
2023-05-17T23:15:09.001Z,52.06
2023-05-17T23:18:17.037Z,52.08
2023-05-17T23:21:24.523Z,52.09
2023-05-17T23:24:32.948Z,52.04
2023-05-17T23:27:38.875Z,51.97
2023-05-17T23:30:46.336Z,51.96
2023-05-17T23:33:52.356Z,52.06
2023-05-17T23:36:58.926Z,52.07
2023-05-17T23:40:09.285Z,52.12
2023-05-17T23:43:17.576Z,52.17
2023-05-17T23:46:25.947Z,52.21
2023-05-17T23:49:32.702Z,52.25
2023-05-17T23:52:39.319Z,52.30
2023-05-17T23:55:45.910Z,52.33
2023-05-17T23:58:52.636Z,52.32
